Time;durP1;ratioP1;P1;durP2;ratioP2;P2;SDS_P1;SDS_P2;PMS_P1;PMS_P2;Temp;Humidity;BMP_temperature;BMP_pressure;BME280_temperature;BME280_humidity;BME280_pressure;Samples;Min_cycle;Max_cycle;Signal;HPM_P1;HPM_P2
2022/04/29 00:01:01;;;;;;;0.30;0.30;;;13.40;99.90;;;-141.50;100.00;62695.63;4986930;28;21228;-67
2022/04/29 00:03:29;;;;;;;0.30;0.30;;;13.40;99.90;;;-141.50;100.00;62695.63;4956518;28;20950;-71
2022/04/29 00:05:56;;;;;;;0.30;0.30;;;13.40;99.90;;;-141.50;100.00;62695.63;4973846;28;20623;-71
2022/04/29 00:08:23;;;;;;;0.30;0.30;;;13.50;99.90;;;-141.50;100.00;62695.63;4988916;28;20657;-71
2022/04/29 00:10:49;;;;;;;0.30;0.30;;;13.40;99.90;;;-141.50;100.00;62695.63;4977131;28;20626;-71
2022/04/29 00:13:17;;;;;;;0.30;0.30;;;13.30;99.90;;;-141.50;100.00;62695.63;4985753;28;20639;-71
2022/04/29 00:15:44;;;;;;;0.30;0.30;;;13.40;99.90;;;-141.50;100.00;62695.63;4985479;28;20622;-72
2022/04/29 00:18:11;;;;;;;0.30;0.30;;;13.30;99.90;;;-141.50;100.00;62695.63;4975596;28;21134;-71
2022/04/29 00:20:38;;;;;;;1.03;1.03;;;13.30;99.90;;;-141.50;100.00;62695.63;4992031;28;20621;-71
2022/04/29 00:23:07;;;;;;;0.30;0.30;;;13.30;99.90;;;-141.50;100.00;62695.63;4988466;28;20630;-71
2022/04/29 00:25:34;;;;;;;0.30;0.30;;;13.20;99.90;;;-141.50;100.00;62695.63;4980724;28;20714;-71
2022/04/29 00:28:01;;;;;;;0.30;0.30;;;13.10;99.90;;;-141.50;100.00;62695.63;4972334;28;20615;-71
2022/04/29 00:30:28;;;;;;;0.30;0.30;;;13.10;99.90;;;-141.50;100.00;62695.63;4972192;28;20710;-71
2022/04/29 00:32:55;;;;;;;0.30;0.30;;;13.00;99.90;;;-141.50;100.00;62695.63;4973806;28;20709;-71
2022/04/29 00:35:22;;;;;;;0.30;0.30;;;12.90;99.90;;;-141.50;100.00;62695.63;4972345;28;20706;-71
2022/04/29 00:37:53;;;;;;;0.30;0.30;;;12.90;99.90;;;-141.50;100.00;62695.63;4989817;28;20728;-71
2022/04/29 00:40:27;;;;;;;0.30;0.30;;;12.90;99.90;;;-141.50;100.00;62695.63;4992225;28;20626;-72
2022/04/29 00:42:55;;;;;;;0.30;0.30;;;12.90;99.90;;;-141.50;100.00;62695.63;4990808;28;20775;-71
2022/04/29 00:45:24;;;;;;;0.30;0.30;;;12.90;99.90;;;-141.50;100.00;62695.63;4991646;28;20606;-71
2022/04/29 00:47:52;;;;;;;0.30;0.30;;;12.90;99.90;;;-141.50;100.00;62695.63;4974586;28;20614;-71
2022/04/29 00:50:24;;;;;;;0.30;0.30;;;12.90;99.90;;;-141.50;100.00;62695.63;4991666;28;20673;-71
2022/04/29 00:52:54;;;;;;;0.30;0.30;;;12.80;99.90;;;-141.50;100.00;62695.63;4975847;28;20725;-71
2022/04/29 00:55:22;;;;;;;1.07;0.97;;;12.80;99.90;;;-141.50;100.00;62695.63;4970448;28;20630;-71
2022/04/29 00:57:57;;;;;;;0.30;0.30;;;12.80;99.90;;;-141.50;100.00;62695.63;4987610;28;20622;-70
2022/04/29 01:00:25;;;;;;;0.40;0.40;;;12.80;99.90;;;-141.50;100.00;62695.63;4973187;28;20721;-71
2022/04/29 01:02:54;;;;;;;0.30;0.23;;;12.80;99.90;;;-141.50;100.00;62695.63;4983013;28;20670;-71
2022/04/29 01:05:23;;;;;;;0.30;0.30;;;12.60;99.90;;;-141.50;100.00;62695.63;4990509;28;20713;-71
2022/04/29 01:07:51;;;;;;;0.30;0.30;;;12.60;99.90;;;-141.50;100.00;62695.63;4986169;28;21207;-71
2022/04/29 01:10:20;;;;;;;0.30;0.30;;;12.60;99.90;;;-141.50;100.00;62695.63;4972611;28;21242;-71
2022/04/29 01:12:56;;;;;;;0.30;0.30;;;12.60;99.90;;;-141.50;100.00;62695.63;4986835;28;20705;-70
2022/04/29 01:15:24;;;;;;;0.30;0.30;;;12.60;99.90;;;-141.50;100.00;62695.63;4970094;28;20615;-71
2022/04/29 01:17:55;;;;;;;0.40;0.40;;;12.60;99.90;;;-141.50;100.00;62695.63;4971040;28;20627;-71
2022/04/29 01:20:30;;;;;;;0.30;0.30;;;12.60;99.90;;;-141.50;100.00;62695.63;4937290;28;1069199;-71
2022/04/29 01:22:57;;;;;;;0.30;0.20;;;12.50;99.90;;;-141.50;100.00;62695.63;4984800;28;20223;-68
2022/04/29 01:25:25;;;;;;;0.30;0.27;;;12.60;99.90;;;-141.50;100.00;62695.63;4973149;28;20623;-71
2022/04/29 01:27:52;;;;;;;0.30;0.30;;;12.60;99.90;;;-141.50;100.00;62695.63;4970891;28;20603;-70
2022/04/29 01:30:19;;;;;;;0.30;0.30;;;12.50;99.90;;;-141.50;100.00;62695.63;4989320;28;20654;-70
2022/04/29 01:32:46;;;;;;;0.30;0.30;;;12.40;99.90;;;-141.50;100.00;62695.63;4991724;28;20618;-71
2022/04/29 01:35:15;;;;;;;0.30;0.30;;;12.40;99.90;;;-141.50;100.00;62695.63;4989717;28;20638;-71
2022/04/29 01:37:43;;;;;;;0.30;0.30;;;12.40;99.90;;;-141.50;100.00;62695.63;4986153;28;20644;-70
2022/04/29 01:40:11;;;;;;;0.30;0.30;;;12.40;99.90;;;-141.50;100.00;62695.63;4973021;28;20691;-71
2022/04/29 01:42:41;;;;;;;0.30;0.30;;;12.30;99.90;;;-141.50;100.00;62695.63;4977155;28;20662;-71
2022/04/29 01:45:09;;;;;;;0.30;0.30;;;12.30;99.90;;;-141.50;100.00;62695.63;4989293;28;21234;-69
2022/04/29 01:47:36;;;;;;;0.30;0.30;;;12.20;99.90;;;-141.50;100.00;62695.63;4974413;28;20634;-70
2022/04/29 01:50:04;;;;;;;0.30;0.23;;;12.10;99.90;;;-141.50;100.00;62695.63;4990255;28;21118;-70
2022/04/29 01:52:31;;;;;;;0.30;0.30;;;12.10;99.90;;;-141.50;100.00;62695.63;4983240;28;21050;-70
2022/04/29 01:54:58;;;;;;;0.70;0.70;;;12.10;99.90;;;-141.50;100.00;62695.63;4987566;28;21298;-71
2022/04/29 01:57:25;;;;;;;0.30;0.20;;;12.10;99.90;;;-141.50;100.00;62695.63;4980605;28;20649;-71
2022/04/29 01:59:52;;;;;;;0.30;0.30;;;12.10;99.90;;;-141.50;100.00;62695.63;4987716;28;20668;-71
2022/04/29 02:02:21;;;;;;;0.30;0.30;;;12.00;99.90;;;-141.50;100.00;62695.63;4975018;28;21044;-71
2022/04/29 02:04:49;;;;;;;0.50;0.50;;;12.00;99.90;;;-141.50;100.00;62695.63;4970361;28;20611;-70
2022/04/29 02:07:16;;;;;;;0.30;0.30;;;12.00;99.90;;;-141.50;100.00;62695.63;4971910;28;20614;-71
2022/04/29 02:09:43;;;;;;;0.30;0.30;;;12.00;99.90;;;-141.50;100.00;62695.63;4988757;28;21013;-70
2022/04/29 02:12:11;;;;;;;0.30;0.30;;;12.00;99.90;;;-141.50;100.00;62695.63;4985541;28;20638;-70
2022/04/29 02:14:41;;;;;;;0.30;0.30;;;11.90;99.90;;;-141.50;100.00;62695.63;4970249;28;21027;-70
2022/04/29 02:17:10;;;;;;;0.30;0.30;;;11.90;99.90;;;-141.50;100.00;62695.63;4971439;28;20706;-67
2022/04/29 02:19:38;;;;;;;0.30;0.20;;;11.80;99.90;;;-141.50;100.00;62695.63;4970720;28;21845;-71
2022/04/29 02:22:08;;;;;;;0.30;0.30;;;11.60;99.90;;;-141.50;100.00;62695.63;4972071;28;20667;-71
2022/04/29 02:24:36;;;;;;;0.30;0.30;;;11.60;99.90;;;-141.50;100.00;62695.63;4989490;28;20717;-71
2022/04/29 02:27:06;;;;;;;0.30;0.30;;;11.50;99.90;;;-141.50;100.00;62695.63;4975173;28;20716;-71
2022/04/29 02:29:35;;;;;;;0.30;0.27;;;11.50;99.90;;;-141.50;100.00;62695.63;4990195;28;20677;-71
2022/04/29 02:32:03;;;;;;;0.30;0.30;;;11.50;99.90;;;-141.50;100.00;62695.63;4992018;28;20625;-68
2022/04/29 02:34:30;;;;;;;0.30;0.30;;;11.50;99.90;;;-141.50;100.00;62695.63;4991438;28;20701;-71
2022/04/29 02:36:57;;;;;;;0.30;0.30;;;11.60;99.90;;;-141.50;100.00;62695.63;4991183;28;20623;-71
2022/04/29 02:39:24;;;;;;;0.30;0.30;;;11.60;99.90;;;-141.50;100.00;62695.63;4971978;28;20666;-71
2022/04/29 02:41:51;;;;;;;0.30;0.20;;;11.60;99.90;;;-141.50;100.00;62695.63;5001162;28;20670;-71
2022/04/29 02:44:18;;;;;;;0.30;0.30;;;11.60;99.90;;;-141.50;100.00;62695.63;4971131;28;20718;-71
2022/04/29 02:49:30;;;;;;;0.30;0.30;;;11.50;99.90;;;-141.50;100.00;62695.63;4970776;28;20649;-71
2022/04/29 02:51:57;;;;;;;0.40;0.40;;;11.40;99.90;;;-141.50;100.00;62695.63;4979874;28;20630;-70
2022/04/29 02:54:24;;;;;;;0.30;0.30;;;11.40;99.90;;;-141.50;100.00;62695.63;4987778;28;20636;-71
2022/04/29 02:56:51;;;;;;;0.30;0.30;;;11.40;99.90;;;-141.50;100.00;62695.63;4987461;28;20634;-71
2022/04/29 02:59:20;;;;;;;0.30;0.30;;;11.50;99.90;;;-141.50;100.00;62695.63;4988625;28;21528;-74
2022/04/29 03:01:47;;;;;;;0.30;0.30;;;11.50;99.90;;;-141.50;100.00;62695.63;4990908;28;20673;-71
2022/04/29 03:04:14;;;;;;;0.30;0.30;;;11.50;99.90;;;-141.50;100.00;62695.63;4990363;28;20658;-73
2022/04/29 03:06:42;;;;;;;0.30;0.30;;;11.50;99.90;;;-141.50;100.00;62695.63;4990153;28;20713;-73
2022/04/29 03:09:09;;;;;;;0.30;0.30;;;11.50;99.90;;;-141.50;100.00;62695.63;4988350;28;20658;-73
2022/04/29 03:11:37;;;;;;;0.30;0.20;;;11.50;99.90;;;-141.50;100.00;62695.63;4981349;28;21217;-71
2022/04/29 03:14:05;;;;;;;0.57;0.57;;;11.50;99.90;;;-141.50;100.00;62695.63;4987655;28;20634;-69
2022/04/29 03:16:32;;;;;;;0.30;0.20;;;11.40;99.90;;;-141.50;100.00;62695.63;4988495;28;20661;-73
2022/04/29 03:18:59;;;;;;;0.30;0.30;;;11.50;99.90;;;-141.50;100.00;62695.63;4984246;28;20677;-71
2022/04/29 03:21:26;;;;;;;0.30;0.30;;;11.40;99.90;;;-141.50;100.00;62695.63;4972808;28;21357;-73
2022/04/29 03:23:54;;;;;;;0.30;0.30;;;11.40;99.90;;;-141.50;100.00;62695.63;4987972;28;20626;-72
2022/04/29 03:26:23;;;;;;;0.30;0.30;;;11.30;99.90;;;-141.50;100.00;62695.63;4988752;28;20626;-71
2022/04/29 03:28:50;;;;;;;0.30;0.30;;;11.20;99.90;;;-141.50;100.00;62695.63;4990673;28;20638;-71
2022/04/29 03:31:17;;;;;;;0.70;0.55;;;11.20;99.90;;;-141.50;100.00;62695.63;4988404;28;24472;-72
2022/04/29 03:33:44;;;;;;;0.40;0.30;;;11.20;99.90;;;-141.50;100.00;62695.63;4988602;28;24475;-71
2022/04/29 03:36:11;;;;;;;2.70;0.75;;;11.10;99.90;;;-141.50;100.00;62695.63;4989872;28;24436;-71
2022/04/29 03:38:38;;;;;;;0.40;0.40;;;11.10;99.90;;;-141.50;100.00;62695.63;4990199;28;24432;-71
2022/04/29 03:41:06;;;;;;;0.40;0.33;;;11.00;99.90;;;-141.50;100.00;62695.63;4983711;28;24564;-72
2022/04/29 03:43:33;;;;;;;1.00;0.90;;;11.00;99.90;;;-141.50;100.00;62695.63;4977083;28;24456;-72
2022/04/29 03:46:01;;;;;;;0.80;0.80;;;11.00;99.90;;;-141.50;100.00;62695.63;4980242;28;24441;-72
2022/04/29 03:49:35;;;;;;;0.70;0.70;;;11.10;99.90;;;-141.50;100.00;62695.63;4981519;28;24982;-73
2022/04/29 03:51:15;;;;;;;0.40;0.30;;;11.20;99.90;;;-141.50;100.00;62695.63;4987445;28;24432;-72
2022/04/29 03:53:42;;;;;;;0.40;0.30;;;11.30;99.90;;;-141.50;100.00;62695.63;4984457;28;25113;-73
2022/04/29 03:56:12;;;;;;;0.70;0.40;;;11.10;99.90;;;-141.50;100.00;62695.63;4977216;28;24433;-72
2022/04/29 03:58:39;;;;;;;0.50;0.50;;;11.10;99.90;;;-141.50;100.00;62695.63;4973474;28;24815;-70
2022/04/29 04:01:06;;;;;;;0.40;0.30;;;11.20;99.90;;;-141.50;100.00;62695.63;4991231;28;24854;-72
2022/04/29 04:03:33;;;;;;;0.40;0.30;;;11.20;99.90;;;-141.50;100.00;62695.63;4989834;28;24456;-72
2022/04/29 04:08:46;;;;;;;9.70;1.20;;;11.20;99.90;;;-141.50;100.00;62695.63;4978407;28;24441;-72
2022/04/29 04:11:12;;;;;;;0.40;0.30;;;11.20;99.90;;;-141.50;100.00;62695.63;4991038;28;24506;-72
2022/04/29 04:13:40;;;;;;;0.88;0.88;;;11.20;99.90;;;-141.50;100.00;62695.63;4991675;28;24445;-71
2022/04/29 04:16:07;;;;;;;0.60;0.60;;;11.20;99.90;;;-141.50;100.00;62695.63;4992798;28;24592;-70
2022/04/29 04:18:34;;;;;;;0.40;0.30;;;11.20;99.90;;;-141.50;100.00;62695.63;4985355;28;24448;-70
2022/04/29 04:21:01;;;;;;;0.40;0.40;;;11.20;99.90;;;-141.50;100.00;62695.63;4972565;28;24536;-66
2022/04/29 04:23:28;;;;;;;0.60;0.60;;;11.20;99.90;;;-141.50;100.00;62695.63;4980263;28;25041;-70
2022/04/29 04:25:57;;;;;;;0.40;0.30;;;11.30;99.90;;;-141.50;100.00;62695.63;4988227;28;24532;-70
2022/04/29 04:28:24;;;;;;;0.40;0.30;;;11.40;99.90;;;-141.50;100.00;62695.63;4989994;28;24872;-72
2022/04/29 04:30:51;;;;;;;0.40;0.40;;;11.40;99.90;;;-141.50;100.00;62695.63;4973886;28;24416;-72
2022/04/29 04:33:18;;;;;;;0.40;0.30;;;11.40;99.90;;;-141.50;100.00;62695.63;4972804;28;24488;-72
2022/04/29 04:35:45;;;;;;;0.60;0.60;;;11.40;99.90;;;-141.50;100.00;62695.63;4941448;28;24421;-70
2022/04/29 04:38:14;;;;;;;0.40;0.30;;;11.50;99.90;;;-141.50;100.00;62695.63;4989397;28;24445;-70
2022/04/29 04:40:42;;;;;;;0.60;0.50;;;11.50;99.90;;;-141.50;100.00;62695.63;4972000;28;24464;-71
2022/04/29 04:43:15;;;;;;;0.57;0.57;;;11.50;99.90;;;-141.50;100.00;62695.63;4972816;28;24456;-70
2022/04/29 04:45:42;;;;;;;1.30;0.90;;;11.60;99.90;;;-141.50;100.00;62695.63;4972093;28;24432;-70
2022/04/29 04:48:09;;;;;;;0.40;0.30;;;11.70;99.90;;;-141.50;100.00;62695.63;4983409;28;24446;-71
2022/04/29 04:50:36;;;;;;;0.40;0.30;;;11.70;99.90;;;-141.50;100.00;62695.63;4992404;28;24867;-71
2022/04/29 04:53:03;;;;;;;0.40;0.40;;;11.80;99.90;;;-141.50;100.00;62695.63;4983822;28;25041;-71
2022/04/29 04:55:30;;;;;;;1.20;1.10;;;11.90;99.90;;;-141.50;100.00;62695.63;4982019;28;25036;-70
2022/04/29 04:57:56;;;;;;;0.70;0.70;;;12.00;99.90;;;-141.50;100.00;62695.63;4962837;28;24455;-70
2022/04/29 05:00:24;;;;;;;0.50;0.50;;;12.30;99.90;;;-141.50;100.00;62695.63;4980550;28;24433;-70
2022/04/29 05:02:51;;;;;;;1.40;1.00;;;12.50;99.90;;;-141.50;100.00;62695.63;4972404;28;24452;-70
2022/04/29 05:05:18;;;;;;;0.40;0.40;;;12.80;99.90;;;-141.50;100.00;62695.63;4970503;28;24421;-72
2022/04/29 05:07:45;;;;;;;0.30;0.30;;;13.00;99.90;;;-141.50;100.00;62695.63;4991324;28;20712;-71
2022/04/29 05:10:13;;;;;;;0.30;0.23;;;13.20;99.90;;;-141.50;100.00;62695.63;4990278;28;20686;-70
2022/04/29 05:12:47;;;;;;;0.30;0.30;;;13.40;99.90;;;-141.50;100.00;62695.63;4989987;28;20638;-70
2022/04/29 05:15:14;;;;;;;0.30;0.30;;;13.60;99.90;;;-141.50;100.00;62695.63;4992035;28;20624;-70
2022/04/29 05:17:42;;;;;;;0.30;0.30;;;13.70;99.90;;;-141.50;100.00;62695.63;4992463;28;21183;-70
2022/04/29 05:20:12;;;;;;;0.50;0.50;;;13.90;99.90;;;-141.50;100.00;62695.63;4992202;28;20652;-71
2022/04/29 05:22:39;;;;;;;0.50;0.50;;;14.00;99.90;;;-141.50;100.00;62695.63;4990577;28;20654;-71
2022/04/29 05:25:07;;;;;;;0.30;0.30;;;14.20;99.90;;;-141.50;100.00;62695.63;4991066;28;20634;-67
2022/04/29 05:27:34;;;;;;;0.30;0.30;;;14.40;99.90;;;-141.50;100.00;62695.63;4988063;28;20653;-70
2022/04/29 05:30:02;;;;;;;0.30;0.30;;;14.60;99.90;;;-141.50;100.00;62695.63;4973737;28;20638;-71
2022/04/29 05:32:35;;;;;;;0.30;0.30;;;14.70;99.90;;;-141.50;100.00;62695.63;4988120;28;20634;-72
2022/04/29 05:35:04;;;;;;;0.30;0.30;;;14.90;99.90;;;-141.50;100.00;62695.63;4984621;28;20631;-72
2022/04/29 05:37:32;;;;;;;0.30;0.30;;;15.00;99.90;;;-141.50;100.00;62695.63;4991602;28;20717;-72
2022/04/29 05:42:44;;;;;;;0.30;0.30;;;15.30;99.90;;;-141.50;100.00;62695.63;4988135;28;21104;-73
2022/04/29 05:45:11;;;;;;;0.30;0.20;;;15.40;99.90;;;-141.50;100.00;62695.63;4972555;28;21058;-72
2022/04/29 05:47:38;;;;;;;0.60;0.57;;;15.40;99.90;;;-141.50;100.00;62695.63;4972706;28;20726;-72
2022/04/29 05:50:06;;;;;;;0.30;0.30;;;15.40;99.90;;;-141.50;100.00;62695.63;4971908;28;21220;-72
2022/04/29 05:52:33;;;;;;;0.30;0.30;;;15.30;99.90;;;-141.50;100.00;62695.63;4976101;28;21267;-71
2022/04/29 05:55:00;;;;;;;0.30;0.30;;;15.20;99.90;;;-141.50;100.00;62695.63;4985105;28;20645;-71
2022/04/29 05:57:27;;;;;;;0.30;0.30;;;15.10;99.90;;;-141.50;100.00;62695.63;4965664;28;20639;-72
2022/04/29 05:59:54;;;;;;;0.30;0.30;;;15.00;99.90;;;-141.50;100.00;62695.63;4973981;28;20642;-70
2022/04/29 06:02:23;;;;;;;0.30;0.30;;;15.00;99.90;;;-141.50;100.00;62695.63;4970759;28;20716;-71
2022/04/29 06:04:50;;;;;;;0.30;0.30;;;14.90;99.90;;;-141.50;100.00;62695.63;4972064;28;20653;-72
2022/04/29 06:07:18;;;;;;;0.30;0.30;;;14.70;99.90;;;-141.50;100.00;62695.63;4971508;28;20639;-72
2022/04/29 06:09:44;;;;;;;0.37;0.37;;;14.60;99.90;;;-141.50;100.00;62695.63;4977493;28;20665;-72
2022/04/29 06:12:12;;;;;;;0.50;0.50;;;14.70;99.90;;;-141.50;100.00;62695.63;4974951;28;20631;-72
2022/04/29 06:14:41;;;;;;;0.30;0.30;;;14.70;99.90;;;-141.50;100.00;62695.63;4972269;28;20691;-72
2022/04/29 06:17:08;;;;;;;1.00;1.00;;;14.80;99.90;;;-141.50;100.00;62695.63;4990651;28;20641;-72
2022/04/29 06:19:34;;;;;;;0.30;0.30;;;14.90;99.90;;;-141.50;100.00;62695.63;4991284;28;20645;-73
2022/04/29 06:22:04;;;;;;;0.30;0.30;;;15.00;99.90;;;-141.50;100.00;62695.63;4992275;28;20645;-72
2022/04/29 06:24:33;;;;;;;0.30;0.30;;;15.10;99.90;;;-141.50;100.00;62695.63;4985327;28;20761;-72
2022/04/29 06:27:19;;;;;;;0.30;0.27;;;15.20;99.90;;;-141.50;100.00;62695.63;4970399;28;20999;-72
2022/04/29 06:29:46;;;;;;;0.30;0.30;;;15.30;99.90;;;-141.50;100.00;62695.63;4976373;28;20653;-72
2022/04/29 06:32:13;;;;;;;0.80;0.80;;;15.40;99.90;;;-141.50;100.00;62695.63;4971360;28;21072;-72
2022/04/29 06:34:43;;;;;;;1.33;1.03;;;15.40;99.90;;;-141.50;100.00;62695.63;5001124;28;20630;-72
2022/04/29 06:37:10;;;;;;;0.40;0.40;;;15.40;99.90;;;-141.50;100.00;62695.63;4989460;28;20622;-68
2022/04/29 06:39:37;;;;;;;0.30;0.30;;;15.50;99.90;;;-141.50;100.00;62695.63;4986209;28;20678;-71
2022/04/29 06:42:05;;;;;;;0.30;0.30;;;15.70;99.90;;;-141.50;100.00;62695.63;5006404;28;21222;-71
2022/04/29 06:44:32;;;;;;;0.30;0.30;;;16.00;99.90;;;-141.50;100.00;62695.63;4982532;28;20674;-72
2022/04/29 06:46:59;;;;;;;0.30;0.30;;;16.40;99.90;;;-141.50;100.00;62695.63;4992100;28;20603;-71
2022/04/29 06:49:26;;;;;;;0.30;0.20;;;17.00;99.90;;;-141.50;100.00;62695.63;4990768;28;20685;-72
2022/04/29 06:51:53;;;;;;;0.30;0.30;;;17.90;98.20;;;-141.50;100.00;62695.63;4990333;28;20611;-70
2022/04/29 06:54:20;;;;;;;0.30;0.30;;;19.10;95.70;;;-141.50;100.00;62695.63;4983355;28;21003;-70
2022/04/29 06:56:47;;;;;;;0.30;0.30;;;20.90;91.60;;;-141.50;100.00;62695.63;4985335;28;20753;-72
2022/04/29 06:59:14;;;;;;;0.30;0.30;;;22.80;82.90;;;-141.50;100.00;62695.63;4982015;28;20666;-70
2022/04/29 07:01:41;;;;;;;0.30;0.30;;;23.90;73.30;;;-141.50;100.00;62695.63;4953343;28;20983;-70
2022/04/29 07:04:08;;;;;;;0.30;0.30;;;25.00;67.30;;;-141.50;100.00;62695.63;4972082;28;21001;-70
2022/04/29 07:06:35;;;;;;;0.30;0.30;;;26.80;61.70;;;-141.50;100.00;62695.63;4972525;28;20969;-70
2022/04/29 07:09:03;;;;;;;0.30;0.30;;;28.30;56.20;;;-141.50;100.00;62695.63;4989476;28;21054;-70
2022/04/29 07:11:31;;;;;;;1.00;0.93;;;28.60;53.60;;;-141.50;100.00;62695.63;4989240;28;20618;-71
2022/04/29 07:13:58;;;;;;;0.30;0.30;;;28.00;53.20;;;-141.50;100.00;62695.63;4986156;28;21145;-70
2022/04/29 07:16:25;;;;;;;0.30;0.30;;;27.20;53.80;;;-141.50;100.00;62695.63;4977968;28;20705;-70
2022/04/29 07:18:52;;;;;;;0.30;0.30;;;26.50;54.80;;;-141.50;100.00;62695.63;4989971;28;21231;-70
2022/04/29 07:21:19;;;;;;;0.30;0.30;;;25.50;55.70;;;-141.50;100.00;62695.63;4989956;28;20637;-70
2022/04/29 07:23:47;;;;;;;0.93;0.93;;;24.40;57.90;;;-141.50;100.00;62695.63;5014523;23;20693;-67
2022/04/29 07:26:14;;;;;;;0.30;0.30;;;23.70;59.80;;;-141.50;100.00;62695.63;4988576;28;20666;-67
2022/04/29 07:28:41;;;;;;;0.77;0.77;;;23.60;60.40;;;-141.50;100.00;62695.63;4985425;28;20639;-68
2022/04/29 07:31:09;;;;;;;0.30;0.30;;;23.80;60.60;;;-141.50;100.00;62695.63;4978392;28;21216;-67
2022/04/29 07:33:36;;;;;;;0.30;0.30;;;23.90;60.30;;;-141.50;100.00;62695.63;4976776;28;20669;-67
2022/04/29 07:41:46;;;;;;;2.20;2.00;;;24.60;58.90;;;-141.50;100.00;62695.63;4996795;28;20661;-66
2022/04/29 07:44:14;;;;;;;0.30;0.30;;;24.20;58.80;;;-141.50;100.00;62695.63;4994329;28;20695;-67
2022/04/29 07:46:45;;;;;;;0.40;0.40;;;24.60;58.40;;;-141.50;100.00;62695.63;4991872;28;20737;-68
2022/04/29 07:49:13;;;;;;;0.70;0.70;;;24.70;58.40;;;-141.50;100.00;62695.63;4992965;28;21057;-67
2022/04/29 07:51:42;;;;;;;0.30;0.30;;;24.90;57.90;;;-141.50;100.00;62695.63;4958154;28;21208;-66
2022/04/29 07:54:09;;;;;;;0.70;0.70;;;24.90;57.30;;;-141.50;100.00;62695.63;4974886;28;20730;-67
2022/04/29 07:56:37;;;;;;;0.30;0.30;;;24.40;57.70;;;-141.50;100.00;62695.63;4992665;28;20634;-67
2022/04/29 07:59:03;;;;;;;0.30;0.30;;;23.70;59.00;;;-141.50;100.00;62695.63;4994258;28;20698;-66
2022/04/29 08:01:33;;;;;;;0.30;0.30;;;23.60;60.00;;;-141.50;100.00;62695.63;4994795;28;20618;-66
2022/04/29 08:04:00;;;;;;;0.30;0.30;;;23.10;60.90;;;-141.50;100.00;62695.63;4992906;28;20712;-67
2022/04/29 08:06:31;;;;;;;0.30;0.30;;;22.90;61.90;;;-141.50;100.00;62695.63;4991801;28;20626;-65
2022/04/29 08:09:19;;;;;;;0.30;0.30;;;22.70;62.40;;;-141.50;100.00;62695.63;4980290;28;21017;-66
2022/04/29 08:11:46;;;;;;;0.30;0.30;;;22.60;61.70;;;-141.50;100.00;62695.63;4990907;28;21258;-67
2022/04/29 08:14:12;;;;;;;0.30;0.30;;;22.10;62.90;;;-141.50;100.00;62695.63;4991577;28;20661;-66
2022/04/29 08:16:59;;;;;;;0.30;0.30;;;21.80;64.10;;;-141.50;100.00;62695.63;4992858;28;20638;-67
2022/04/29 08:19:27;;;;;;;0.30;0.30;;;21.40;64.30;;;-141.50;100.00;62695.63;4994812;28;20628;-66
2022/04/29 08:21:54;;;;;;;0.30;0.30;;;21.20;65.70;;;-141.50;100.00;62695.63;4993949;28;20693;-67
2022/04/29 08:24:20;;;;;;;0.30;0.30;;;21.20;66.30;;;-141.50;100.00;62695.63;4994258;28;20773;-67
2022/04/29 08:26:50;;;;;;;0.30;0.30;;;21.10;66.50;;;-141.50;100.00;62695.63;4993396;28;20733;-67
2022/04/29 08:29:17;;;;;;;0.50;0.50;;;21.20;66.90;;;-141.50;100.00;62695.63;4994480;28;20630;-67
2022/04/29 08:31:44;;;;;;;0.30;0.30;;;21.70;65.80;;;-141.50;100.00;62695.63;5007459;28;20632;-67
2022/04/29 08:34:11;;;;;;;0.30;0.30;;;22.30;65.40;;;-141.50;100.00;62695.63;4991205;28;20657;-67
2022/04/29 08:36:38;;;;;;;0.50;0.50;;;23.00;63.70;;;-141.50;100.00;62695.63;4991491;28;20795;-65
2022/04/29 08:39:05;;;;;;;0.30;0.30;;;23.60;61.50;;;-141.50;100.00;62695.63;4980793;28;20745;-67
2022/04/29 08:41:36;;;;;;;0.30;0.30;;;24.90;59.10;;;-141.50;100.00;62695.63;4991577;28;20737;-66
2022/04/29 08:44:07;;;;;;;0.30;0.30;;;26.70;56.20;;;-141.50;100.00;62695.63;4989615;28;20714;-66
2022/04/29 08:46:35;;;;;;;0.30;0.30;;;28.40;52.00;;;-141.50;100.00;62695.63;4990015;28;20633;-66
2022/04/29 08:49:02;;;;;;;0.47;0.47;;;29.70;49.00;;;-141.50;100.00;62695.63;4992576;28;20705;-67
2022/04/29 08:51:30;;;;;;;0.40;0.40;;;30.90;46.40;;;-141.50;100.00;62695.63;4992579;28;20642;-67
2022/04/29 08:53:58;;;;;;;5.93;1.53;;;31.90;45.60;;;-141.50;100.00;62695.63;4991789;28;20660;-67
2022/04/29 08:59:10;;;;;;;1.10;1.03;;;32.90;42.90;;;-141.50;100.00;62695.63;4985332;28;20662;-67
2022/04/29 09:01:40;;;;;;;0.63;0.63;;;33.70;42.30;;;-141.50;100.00;62695.63;4979152;28;21988;-66
2022/04/29 09:04:07;;;;;;;0.80;0.80;;;34.00;40.30;;;-141.50;100.00;62695.63;4991773;28;20669;-67
2022/04/29 09:06:46;;;;;;;0.30;0.30;;;33.60;40.10;;;-141.50;100.00;62695.63;4991768;28;20635;-66
2022/04/29 09:09:12;;;;;;;0.30;0.30;;;33.10;40.50;;;-141.50;100.00;62695.63;4991850;28;20717;-67
2022/04/29 09:11:39;;;;;;;0.40;0.30;;;32.50;41.30;;;-141.50;100.00;62695.63;4988251;28;20646;-66
2022/04/29 09:14:24;;;;;;;0.40;0.40;;;32.70;41.10;;;-141.50;100.00;62695.63;5004250;28;20693;-67
2022/04/29 09:16:51;;;;;;;0.63;0.63;;;33.50;40.70;;;-141.50;100.00;62695.63;4990749;28;20626;-67
2022/04/29 09:19:33;;;;;;;0.40;0.40;;;33.70;40.60;;;-141.50;100.00;62695.63;4992295;28;20656;-67
2022/04/29 09:22:09;;;;;;;0.40;0.40;;;32.80;39.80;;;-141.50;100.00;62695.63;4990437;28;20719;-66
2022/04/29 09:24:36;;;;;;;0.40;0.30;;;30.90;41.50;;;-141.50;100.00;62695.63;4989025;28;20708;-66
2022/04/29 09:27:05;;;;;;;0.40;0.30;;;29.80;42.90;;;-141.50;100.00;62695.63;4989772;28;20673;-65
2022/04/29 09:29:41;;;;;;;0.40;0.40;;;29.20;44.00;;;-141.50;100.00;62695.63;4988981;28;21220;-65
2022/04/29 09:32:11;;;;;;;0.60;0.50;;;28.50;43.30;;;-141.50;100.00;62695.63;4990094;28;20642;-67
2022/04/29 09:34:53;;;;;;;0.50;0.50;;;28.10;44.60;;;-141.50;100.00;62695.63;4988187;28;20716;-66
2022/04/29 09:37:26;;;;;;;0.60;0.60;;;27.70;44.60;;;-141.50;100.00;62695.63;4991103;28;20653;-67
2022/04/29 09:40:04;;;;;;;0.40;0.30;;;27.60;45.50;;;-141.50;100.00;62695.63;4990903;28;20621;-66
2022/04/29 09:42:43;;;;;;;0.60;0.60;;;27.60;45.50;;;-141.50;100.00;62695.63;4991580;28;20726;-66
2022/04/29 09:45:24;;;;;;;0.40;0.30;;;27.50;45.30;;;-141.50;100.00;62695.63;4970226;28;20677;-65
2022/04/29 09:47:58;;;;;;;0.40;0.30;;;28.10;45.40;;;-141.50;100.00;62695.63;4988152;28;20614;-66
2022/04/29 09:50:50;;;;;;;0.40;0.30;;;28.60;45.50;;;-141.50;100.00;62695.63;4973000;28;20621;-65
2022/04/29 09:53:25;;;;;;;0.83;0.83;;;28.40;44.80;;;-141.50;100.00;62695.63;4987876;28;21027;-66
2022/04/29 09:56:09;;;;;;;0.30;0.30;;;28.40;44.70;;;-141.50;100.00;62695.63;4989206;28;20718;-67
2022/04/29 09:58:37;;;;;;;0.30;0.30;;;28.10;44.30;;;-141.50;100.00;62695.63;4997025;28;20735;-66
2022/04/29 10:01:04;;;;;;;0.37;0.30;;;27.50;44.20;;;-141.50;100.00;62695.63;4990797;28;20717;-66
2022/04/29 10:03:35;;;;;;;0.60;0.60;;;27.40;45.30;;;-141.50;100.00;62695.63;4986717;28;20678;-66
2022/04/29 10:06:07;;;;;;;0.40;0.30;;;27.30;45.30;;;-141.50;100.00;62695.63;4990382;28;20625;-70
2022/04/29 10:08:37;;;;;;;0.40;0.30;;;26.70;47.50;;;-141.50;100.00;62695.63;4987998;28;21256;-69
2022/04/29 10:11:05;;;;;;;0.50;0.50;;;26.30;47.90;;;-141.50;100.00;62695.63;4989498;28;20615;-69
2022/04/29 10:13:33;;;;;;;0.40;0.40;;;26.10;48.20;;;-141.50;100.00;62695.63;4988532;28;20660;-68
2022/04/29 10:16:01;;;;;;;0.70;0.63;;;25.90;48.20;;;-141.50;100.00;62695.63;4989123;28;20703;-69
2022/04/29 10:21:21;;;;;;;0.40;0.30;;;25.70;48.40;;;-141.50;100.00;62695.63;4988402;28;20621;-69
2022/04/29 10:23:48;;;;;;;1.27;1.07;;;25.20;49.50;;;-141.50;100.00;62695.63;4988628;28;20681;-69
2022/04/29 10:26:21;;;;;;;0.97;0.97;;;24.90;50.00;;;-141.50;100.00;62695.63;4990589;28;20626;-71